Time;durP1;ratioP1;P1;durP2;ratioP2;P2;SDS_P1;SDS_P2;PMS_P1;PMS_P2;Temp;Humidity;BMP_temperature;BMP_pressure;BME280_temperature;BME280_humidity;BME280_pressure;Samples;Min_cycle;Max_cycle;Signal;HPM_P1;HPM_P2
2022/09/17 00:00:39;;;;;;;1.35;0.90;;;22.40;46.80;;;;;;5051968;28;20057;-10
2022/09/17 00:03:08;;;;;;;1.08;0.98;;;22.50;46.80;;;;;;5052206;28;20045;-10
2022/09/17 00:05:36;;;;;;;1.88;1.02;;;22.50;46.90;;;;;;5052139;28;20052;-10
2022/09/17 00:08:04;;;;;;;1.15;0.95;;;22.40;47.40;;;;;;5052300;28;20129;-10
2022/09/17 00:10:32;;;;;;;1.75;0.98;;;22.40;46.90;;;;;;5052098;28;20049;-10
2022/09/17 00:13:00;;;;;;;1.90;1.00;;;22.40;46.90;;;;;;5052108;28;20060;-10
2022/09/17 00:15:26;;;;;;;1.55;0.98;;;22.40;46.90;;;;;;5052102;28;20064;-10
2022/09/17 00:17:57;;;;;;;1.35;0.85;;;22.50;46.90;;;;;;5052012;28;20048;-10
2022/09/17 00:20:25;;;;;;;1.10;1.00;;;22.40;46.90;;;;;;5051954;28;20413;-10
2022/09/17 00:22:50;;;;;;;1.42;0.95;;;22.40;46.80;;;;;;5051633;28;20052;-10
2022/09/17 00:25:16;;;;;;;1.00;0.90;;;22.40;46.90;;;;;;5052221;28;20440;-10
2022/09/17 00:27:42;;;;;;;1.73;0.95;;;22.40;46.90;;;;;;5052295;28;20436;-10
2022/09/17 00:30:09;;;;;;;1.55;1.08;;;22.40;46.90;;;;;;5051716;28;20409;-10
2022/09/17 00:32:34;;;;;;;0.95;0.82;;;22.40;47.00;;;;;;5052219;28;20490;-10
2022/09/17 00:35:00;;;;;;;1.73;1.05;;;22.40;46.90;;;;;;5051606;28;20060;-10
2022/09/17 00:37:25;;;;;;;1.48;1.20;;;22.40;46.80;;;;;;5051705;28;20063;-10
2022/09/17 00:39:51;;;;;;;2.25;1.20;;;22.40;46.90;;;;;;5052055;28;20140;-10
2022/09/17 00:42:17;;;;;;;1.75;1.00;;;22.40;46.90;;;;;;5051704;28;20052;-10
2022/09/17 00:44:48;;;;;;;2.17;1.00;;;22.40;46.80;;;;;;5051644;28;20048;-10
2022/09/17 00:47:30;;;;;;;1.95;0.85;;;22.40;46.90;;;;;;5051943;28;20060;-10
2022/09/17 00:50:12;;;;;;;2.25;1.10;;;22.40;46.90;;;;;;5051643;28;20049;-10
2022/09/17 00:52:56;;;;;;;2.20;1.10;;;22.40;46.90;;;;;;5051779;28;20061;-10
2022/09/17 00:55:24;;;;;;;1.33;1.00;;;22.40;47.00;;;;;;5051398;28;20053;-10
2022/09/17 00:57:52;;;;;;;1.88;1.00;;;22.40;47.00;;;;;;5051417;28;20065;-11
2022/09/17 01:00:18;;;;;;;1.75;1.20;;;22.40;46.90;;;;;;5051349;28;20056;-10
2022/09/17 01:02:44;;;;;;;1.90;1.40;;;22.40;46.90;;;;;;5050899;28;20052;-10
2022/09/17 01:05:11;;;;;;;1.75;1.30;;;22.40;46.90;;;;;;5051274;28;20452;-10
2022/09/17 01:08:01;;;;;;;1.63;1.00;;;22.40;46.90;;;;;;5051347;28;20055;-10
2022/09/17 01:10:54;;;;;;;2.33;1.38;;;22.40;47.00;;;;;;5051318;28;20131;-10
2022/09/17 01:13:41;;;;;;;1.45;1.10;;;22.40;47.00;;;;;;5051495;28;20049;-10
2022/09/17 01:16:26;;;;;;;3.30;1.05;;;22.40;46.90;;;;;;5051537;28;20152;-10
2022/09/17 01:19:21;;;;;;;1.52;1.17;;;22.40;46.90;;;;;;5051424;28;20057;-10
2022/09/17 01:22:01;;;;;;;1.33;1.00;;;22.40;47.00;;;;;;5051201;28;20493;-10
2022/09/17 01:24:48;;;;;;;1.70;1.27;;;22.40;47.00;;;;;;5051023;28;20077;-10
2022/09/17 01:27:32;;;;;;;1.35;1.25;;;22.40;47.00;;;;;;5051230;28;20057;-10
2022/09/17 01:30:21;;;;;;;1.60;1.17;;;22.40;47.00;;;;;;5051439;28;20084;-10
2022/09/17 01:33:02;;;;;;;1.52;1.20;;;22.40;47.00;;;;;;5050969;28;20068;-10
2022/09/17 01:36:05;;;;;;;1.83;1.10;;;22.30;47.00;;;;;;5051149;28;20083;-10
2022/09/17 01:39:00;;;;;;;1.92;1.20;;;22.30;47.00;;;;;;5050708;28;20049;-10
2022/09/17 01:41:40;;;;;;;0.85;0.80;;;22.40;47.00;;;;;;5051301;28;20053;-10
2022/09/17 01:44:30;;;;;;;1.40;1.00;;;22.40;47.00;;;;;;5050837;28;20375;-10
2022/09/17 01:47:12;;;;;;;1.20;1.00;;;22.30;47.00;;;;;;5050896;28;20045;-10
2022/09/17 01:49:39;;;;;;;1.38;1.20;;;22.40;47.10;;;;;;5051427;28;20052;-10
2022/09/17 01:52:08;;;;;;;2.13;1.05;;;22.40;47.00;;;;;;5051315;28;20064;-10
2022/09/17 01:54:43;;;;;;;1.10;1.00;;;22.40;47.00;;;;;;5050839;28;20418;-10
2022/09/17 01:57:24;;;;;;;1.80;1.27;;;22.30;47.00;;;;;;5051374;28;20045;-10
2022/09/17 01:59:58;;;;;;;1.95;1.10;;;22.40;47.00;;;;;;5051400;28;20061;-10
2022/09/17 02:02:35;;;;;;;1.60;0.95;;;22.40;47.00;;;;;;5051089;28;20486;-10
2022/09/17 02:05:07;;;;;;;1.17;1.00;;;22.40;47.00;;;;;;5050667;28;20045;-10
2022/09/17 02:07:38;;;;;;;2.00;1.00;;;22.30;47.00;;;;;;5050771;28;20063;-10
2022/09/17 02:10:09;;;;;;;;;;;22.30;47.10;;;;;;5051239;28;20061;-10
2022/09/17 02:12:44;;;;;;;2.35;1.20;;;22.40;47.10;;;;;;5050854;28;20015;-10
2022/09/17 02:15:20;;;;;;;2.05;1.15;;;22.40;47.00;;;;;;5049801;28;20471;-12
2022/09/17 02:18:00;;;;;;;2.42;1.15;;;22.30;47.00;;;;;;5050429;28;20049;-10
2022/09/17 02:20:39;;;;;;;1.20;1.07;;;22.30;47.00;;;;;;5050551;28;20502;-10
2022/09/17 02:23:15;;;;;;;1.30;1.10;;;22.30;47.00;;;;;;5050768;28;20053;-10
2022/09/17 02:25:58;;;;;;;2.63;1.10;;;22.30;47.00;;;;;;5050720;28;20547;-10
2022/09/17 02:28:39;;;;;;;1.23;0.90;;;22.40;47.10;;;;;;5050225;28;20049;-10
2022/09/17 02:31:05;;;;;;;3.38;1.23;;;22.30;47.10;;;;;;5050471;28;20117;-10
2022/09/17 02:33:33;;;;;;;1.85;1.27;;;22.30;47.10;;;;;;5050519;28;20494;-10
2022/09/17 02:36:00;;;;;;;2.42;1.10;;;22.30;47.10;;;;;;5050302;28;20210;-10
2022/09/17 02:38:28;;;;;;;1.48;0.95;;;22.30;47.00;;;;;;5049931;28;20136;-10
2022/09/17 02:41:13;;;;;;;3.25;1.67;;;22.30;47.00;;;;;;5050352;28;20057;-10
2022/09/17 02:43:59;;;;;;;1.42;1.10;;;22.30;47.00;;;;;;5050519;28;20053;-10
2022/09/17 02:46:33;;;;;;;1.92;1.30;;;22.30;47.00;;;;;;5032858;28;20057;-10
2022/09/17 02:49:21;;;;;;;1.83;1.13;;;22.30;47.10;;;;;;5050194;28;20060;-10
2022/09/17 02:52:03;;;;;;;1.85;1.20;;;22.30;47.00;;;;;;5050402;28;20061;-10
2022/09/17 02:55:09;;;;;;;1.63;0.90;;;22.30;47.00;;;;;;5050480;28;20077;-10
2022/09/17 02:58:00;;;;;;;1.85;1.27;;;22.30;47.10;;;;;;5049764;28;20055;-10
2022/09/17 03:00:27;;;;;;;1.63;1.30;;;22.30;47.10;;;;;;5050316;28;20053;-10
2022/09/17 03:03:05;;;;;;;1.92;1.30;;;22.30;47.10;;;;;;5050577;28;20057;-10
2022/09/17 03:05:33;;;;;;;1.42;1.10;;;22.30;47.10;;;;;;5050169;28;20510;-10
2022/09/17 03:07:59;;;;;;;1.63;1.30;;;22.30;47.10;;;;;;5050151;28;20074;-10
2022/09/17 03:10:28;;;;;;;1.13;1.00;;;22.30;47.10;;;;;;5050224;28;20048;-10
2022/09/17 03:12:55;;;;;;;1.95;1.20;;;22.30;47.10;;;;;;5049821;28;20041;-10
2022/09/17 03:15:20;;;;;;;1.77;1.20;;;22.30;47.10;;;;;;5049736;28;20044;-10
2022/09/17 03:17:46;;;;;;;2.13;1.30;;;22.30;47.10;;;;;;5049801;28;20147;-10
2022/09/17 03:20:14;;;;;;;1.63;1.20;;;22.30;47.10;;;;;;5049374;28;20502;-10
2022/09/17 03:22:40;;;;;;;1.38;1.10;;;22.30;47.10;;;;;;5050150;28;20087;-10
2022/09/17 03:25:07;;;;;;;1.88;1.25;;;22.30;47.20;;;;;;5049466;28;20082;-10
2022/09/17 03:27:32;;;;;;;2.17;1.65;;;22.30;47.10;;;;;;5049320;28;20053;-10
2022/09/17 03:29:58;;;;;;;1.20;1.02;;;22.30;47.10;;;;;;5049440;28;20517;-10
2022/09/17 03:32:24;;;;;;;1.38;1.27;;;22.30;47.10;;;;;;5049566;28;20414;-10
2022/09/17 03:34:49;;;;;;;1.20;1.10;;;22.30;47.10;;;;;;5031827;28;20056;-10
2022/09/17 03:37:15;;;;;;;2.58;1.30;;;22.30;47.20;;;;;;5049540;28;20049;-10
2022/09/17 03:39:41;;;;;;;2.15;1.40;;;22.30;47.10;;;;;;5049448;28;20490;-10
2022/09/17 03:42:06;;;;;;;1.75;1.20;;;22.30;47.10;;;;;;5049520;28;20075;-10
2022/09/17 03:44:32;;;;;;;1.95;1.23;;;22.30;47.10;;;;;;5049315;28;20431;-10
2022/09/17 03:46:58;;;;;;;3.05;1.40;;;22.30;47.10;;;;;;5049741;28;20405;-10
2022/09/17 03:49:23;;;;;;;2.17;1.20;;;22.20;47.10;;;;;;5049352;28;20462;-10
2022/09/17 03:51:49;;;;;;;2.47;1.40;;;22.30;47.70;;;;;;5049435;28;20053;-10
2022/09/17 03:54:15;;;;;;;1.25;1.02;;;22.30;47.10;;;;;;5049708;28;20057;-10
2022/09/17 03:56:40;;;;;;;1.77;1.33;;;22.30;47.10;;;;;;5049026;28;20075;-10
2022/09/17 03:59:06;;;;;;;2.95;1.48;;;22.30;47.10;;;;;;5049162;28;20045;-10
2022/09/17 04:01:31;;;;;;;1.98;1.20;;;22.30;47.10;;;;;;5049666;28;20058;-10
2022/09/17 04:03:57;;;;;;;3.40;1.63;;;22.30;47.10;;;;;;5049032;28;20045;-10
2022/09/17 04:06:23;;;;;;;1.90;1.05;;;22.30;47.10;;;;;;5049007;28;20053;-10
2022/09/17 04:08:48;;;;;;;2.05;1.42;;;22.30;47.10;;;;;;5049524;28;20052;-10
2022/09/17 04:11:14;;;;;;;2.50;1.40;;;22.30;47.20;;;;;;5047708;28;20516;-10
2022/09/17 04:13:39;;;;;;;2.65;1.40;;;22.20;47.10;;;;;;5048955;28;20088;-10
2022/09/17 04:16:05;;;;;;;1.42;1.10;;;22.30;47.10;;;;;;5048552;28;20393;-10
2022/09/17 04:18:31;;;;;;;1.92;1.30;;;22.20;47.20;;;;;;5049074;28;20045;-10
2022/09/17 04:20:57;;;;;;;2.05;1.40;;;22.20;47.10;;;;;;5048758;28;20417;-10
2022/09/17 04:23:22;;;;;;;2.90;1.75;;;22.20;47.10;;;;;;5048788;28;20053;-10
2022/09/17 04:25:48;;;;;;;1.50;1.20;;;22.20;47.10;;;;;;5048800;28;20106;-10
2022/09/17 04:28:14;;;;;;;1.48;1.08;;;22.30;47.20;;;;;;5049145;28;20051;-10
2022/09/17 04:30:41;;;;;;;2.17;1.35;;;22.20;47.10;;;;;;5048559;28;20079;-10
2022/09/17 04:33:07;;;;;;;1.95;1.20;;;22.30;47.10;;;;;;5048668;28;20053;-10
2022/09/17 04:35:33;;;;;;;2.30;1.23;;;22.30;47.20;;;;;;5049196;28;20056;-10
2022/09/17 04:38:00;;;;;;;1.92;1.17;;;22.30;47.10;;;;;;5049519;28;20084;-10
2022/09/17 04:40:26;;;;;;;2.20;1.27;;;22.30;47.20;;;;;;5051709;28;20045;-10
2022/09/17 04:42:58;;;;;;;2.58;1.13;;;22.20;47.10;;;;;;5051563;28;20053;-10
2022/09/17 04:45:25;;;;;;;1.52;1.23;;;22.20;47.20;;;;;;5052255;28;20443;-10
2022/09/17 04:47:50;;;;;;;2.47;1.25;;;22.20;47.20;;;;;;5051641;28;20053;-10
2022/09/17 04:50:20;;;;;;;2.13;1.30;;;22.20;47.20;;;;;;5051537;28;20053;-10
2022/09/17 04:52:47;;;;;;;1.33;1.20;;;22.20;47.10;;;;;;5051743;28;20057;-10
2022/09/17 04:55:13;;;;;;;1.83;1.30;;;22.20;47.10;;;;;;5051973;28;20535;-10
2022/09/17 04:57:44;;;;;;;2.42;1.30;;;22.30;47.20;;;;;;5051328;28;20059;-10
2022/09/17 05:00:10;;;;;;;2.30;1.30;;;22.30;47.10;;;;;;5051601;28;20502;-10
2022/09/17 05:02:35;;;;;;;2.10;1.40;;;22.20;47.10;;;;;;5051282;28;20061;-10
2022/09/17 05:05:01;;;;;;;3.22;1.67;;;22.20;47.20;;;;;;5051973;28;20109;-10
2022/09/17 05:07:26;;;;;;;1.60;1.20;;;22.20;47.20;;;;;;5051412;28;20056;-10
2022/09/17 05:09:52;;;;;;;1.88;1.30;;;22.20;47.20;;;;;;5051377;28;20057;-10
2022/09/17 05:12:18;;;;;;;1.52;1.17;;;22.20;47.10;;;;;;5051678;28;20401;-10
2022/09/17 05:14:44;;;;;;;2.00;1.30;;;22.20;47.20;;;;;;5051236;28;20049;-10
2022/09/17 05:17:10;;;;;;;2.20;1.00;;;22.20;47.20;;;;;;5051391;28;20048;-10
2022/09/17 05:19:36;;;;;;;1.98;1.27;;;22.20;47.20;;;;;;5051717;28;20052;-10
2022/09/17 05:22:01;;;;;;;1.52;0.98;;;22.20;47.20;;;;;;5051250;28;20053;-10
2022/09/17 05:24:27;;;;;;;1.40;1.05;;;22.20;47.10;;;;;;5051298;28;20044;-10
2022/09/17 05:26:53;;;;;;;2.05;1.00;;;22.20;47.10;;;;;;5051256;28;20064;-10
2022/09/17 05:29:18;;;;;;;2.20;1.30;;;22.20;47.10;;;;;;5051061;28;20061;-10
2022/09/17 05:31:44;;;;;;;1.63;1.10;;;22.30;47.10;;;;;;5051444;28;20053;-10
2022/09/17 05:34:09;;;;;;;2.45;1.30;;;22.30;47.10;;;;;;5051243;28;20045;-10
2022/09/17 05:36:35;;;;;;;1.58;1.13;;;22.30;47.10;;;;;;5051013;28;20514;-10
2022/09/17 05:39:00;;;;;;;1.38;1.13;;;22.30;47.10;;;;;;5051018;28;20049;-10
2022/09/17 05:41:26;;;;;;;2.97;1.33;;;22.30;47.10;;;;;;5051287;28;20123;-10
2022/09/17 05:43:52;;;;;;;1.88;1.17;;;22.30;47.10;;;;;;5050967;28;20049;-10
2022/09/17 05:46:17;;;;;;;2.90;1.40;;;22.30;47.10;;;;;;5051304;28;20053;-10
2022/09/17 05:48:43;;;;;;;1.77;1.15;;;22.30;47.10;;;;;;5050501;28;20584;-10
2022/09/17 05:51:08;;;;;;;1.58;1.25;;;22.30;47.10;;;;;;5050282;28;20547;-10
2022/09/17 05:53:34;;;;;;;1.88;1.20;;;22.30;47.10;;;;;;5050977;28;20065;-10
2022/09/17 05:56:00;;;;;;;2.75;1.38;;;22.30;47.10;;;;;;5050721;28;20059;-10
2022/09/17 05:58:26;;;;;;;1.92;1.65;;;22.30;47.10;;;;;;5050398;28;20056;-10
2022/09/17 06:00:52;;;;;;;2.35;1.35;;;22.30;47.00;;;;;;5050674;28;20049;-10
2022/09/17 06:03:19;;;;;;;2.72;1.20;;;22.30;47.00;;;;;;5050489;28;20402;-10
2022/09/17 06:05:57;;;;;;;3.15;1.20;;;22.30;47.00;;;;;;5050519;28;20045;-10
2022/09/17 06:08:23;;;;;;;2.67;1.42;;;22.30;47.00;;;;;;5050899;28;20057;-10
2022/09/17 06:10:49;;;;;;;3.00;1.38;;;22.30;47.00;;;;;;5050472;28;20138;-10
2022/09/17 06:13:19;;;;;;;1.90;1.10;;;22.30;47.00;;;;;;5050624;28;20091;-10
2022/09/17 06:15:50;;;;;;;1.80;1.35;;;22.30;46.90;;;;;;5050711;28;20486;-10
2022/09/17 06:18:16;;;;;;;1.45;1.00;;;22.30;46.90;;;;;;5050503;28;20186;-10
2022/09/17 06:20:41;;;;;;;1.92;1.38;;;22.30;46.90;;;;;;5050270;28;20085;-10
2022/09/17 06:23:07;;;;;;;2.10;1.17;;;22.30;46.90;;;;;;5050589;28;20102;-10
2022/09/17 06:25:34;;;;;;;1.30;1.02;;;22.30;46.90;;;;;;5050245;28;20053;-10
2022/09/17 06:28:02;;;;;;;2.25;1.17;;;22.30;46.90;;;;;;5050231;28;20087;-10
2022/09/17 06:30:27;;;;;;;2.65;1.25;;;22.30;46.90;;;;;;5050600;28;20059;-10
2022/09/17 06:32:53;;;;;;;2.13;1.45;;;22.30;46.80;;;;;;5050372;28;20061;-10
2022/09/17 06:35:19;;;;;;;2.40;1.17;;;22.40;46.90;;;;;;5050606;28;20049;-10
2022/09/17 06:37:44;;;;;;;2.50;1.40;;;22.40;46.90;;;;;;5050772;28;20045;-10
2022/09/17 06:40:10;;;;;;;3.00;1.27;;;22.30;46.90;;;;;;5049968;28;20490;-10
2022/09/17 06:42:35;;;;;;;2.70;1.40;;;22.30;46.90;;;;;;5050182;28;20101;-10
2022/09/17 06:45:01;;;;;;;1.70;1.13;;;22.40;46.90;;;;;;5050148;28;20139;-10
2022/09/17 06:47:27;;;;;;;2.00;1.15;;;22.40;46.90;;;;;;5050443;28;20045;-10
2022/09/17 06:49:55;;;;;;;2.63;1.20;;;22.40;46.80;;;;;;5050041;28;20110;-10
2022/09/17 06:52:21;;;;;;;1.23;1.10;;;22.50;46.70;;;;;;5050738;28;20546;-10
2022/09/17 06:54:47;;;;;;;2.85;1.23;;;22.60;46.30;;;;;;5050101;28;20056;-10
2022/09/17 06:57:12;;;;;;;1.35;1.00;;;22.70;46.10;;;;;;5050091;28;20045;-10
2022/09/17 06:59:38;;;;;;;2.38;1.10;;;22.80;46.10;;;;;;5050111;28;20080;-10
2022/09/17 07:02:04;;;;;;;1.55;1.10;;;22.90;45.90;;;;;;5049693;28;20367;-10
2022/09/17 07:04:29;;;;;;;2.25;1.20;;;23.00;45.60;;;;;;5049727;28;20140;-10
2022/09/17 07:06:55;;;;;;;2.10;1.23;;;23.10;45.40;;;;;;5050116;28;20143;-10
2022/09/17 07:09:21;;;;;;;2.13;1.20;;;23.20;45.10;;;;;;5049639;28;20549;-10
2022/09/17 07:11:46;;;;;;;1.77;1.02;;;23.30;44.90;;;;;;5049774;28;20069;-10
2022/09/17 07:14:12;;;;;;;1.45;1.10;;;23.40;44.80;;;;;;5049741;28;20045;-10
2022/09/17 07:16:37;;;;;;;2.42;1.48;;;23.50;44.70;;;;;;5049803;28;20044;-10
2022/09/17 07:19:04;;;;;;;1.23;0.90;;;23.50;44.50;;;;;;5049676;28;20053;-10
2022/09/17 07:21:30;;;;;;;1.85;1.02;;;23.70;44.40;;;;;;5049904;28;20538;-10
2022/09/17 07:23:55;;;;;;;1.52;1.17;;;23.70;44.30;;;;;;5049506;28;20252;-10
2022/09/17 07:26:21;;;;;;;1.83;1.33;;;23.60;44.50;;;;;;5049661;28;20049;-10
2022/09/17 07:28:46;;;;;;;3.30;1.55;;;23.60;44.60;;;;;;5049795;28;20421;-10
2022/09/17 07:31:12;;;;;;;2.60;1.38;;;23.50;44.50;;;;;;5049559;28;20061;-10
2022/09/17 07:33:39;;;;;;;2.00;1.20;;;23.50;44.50;;;;;;5049567;28;20057;-10
2022/09/17 07:36:06;;;;;;;2.30;1.38;;;23.40;44.70;;;;;;5049839;28;20053;-10
2022/09/17 07:38:33;;;;;;;2.00;1.35;;;23.30;44.90;;;;;;5031414;28;20052;-10
2022/09/17 07:41:01;;;;;;;1.85;1.30;;;23.20;45.10;;;;;;5049671;28;20106;-10
2022/09/17 07:43:29;;;;;;;1.48;1.00;;;23.20;45.20;;;;;;5049280;28;20053;-10
2022/09/17 07:45:56;;;;;;;2.53;1.20;;;23.20;45.20;;;;;;5049285;28;20433;-10
2022/09/17 07:48:23;;;;;;;1.95;1.30;;;23.20;45.20;;;;;;5049324;28;20053;-10
2022/09/17 07:50:48;;;;;;;2.10;1.20;;;23.20;45.30;;;;;;5049179;28;20063;-10
2022/09/17 07:53:14;;;;;;;1.77;1.10;;;23.20;45.20;;;;;;5049172;28;20127;-10
2022/09/17 07:55:40;;;;;;;2.30;1.30;;;23.30;45.10;;;;;;5049101;28;20049;-10
2022/09/17 07:58:06;;;;;;;3.50;1.67;;;23.30;44.90;;;;;;5049228;28;20387;-10
2022/09/17 08:00:31;;;;;;;3.03;1.10;;;23.40;44.80;;;;;;5049227;28;20144;-10
2022/09/17 08:02:57;;;;;;;2.10;1.00;;;23.40;44.70;;;;;;5049212;28;20041;-10
2022/09/17 08:05:24;;;;;;;2.70;1.40;;;23.50;44.70;;;;;;5049135;28;20049;-10
2022/09/17 08:07:51;;;;;;;2.35;1.20;;;23.50;44.60;;;;;;5048754;28;20078;-10
2022/09/17 08:10:20;;;;;;;2.30;1.48;;;23.50;44.60;;;;;;5048925;28;20064;-10
2022/09/17 08:12:47;;;;;;;2.25;1.08;;;23.50;44.70;;;;;;5049198;28;20413;-10
2022/09/17 08:15:13;;;;;;;2.80;1.33;;;23.40;44.70;;;;;;5052402;28;20550;-10
2022/09/17 08:17:45;;;;;;;1.38;1.10;;;23.40;44.70;;;;;;5051572;28;20067;-10
2022/09/17 08:20:13;;;;;;;2.70;1.30;;;23.40;44.80;;;;;;5033860;28;20121;-10
2022/09/17 08:22:39;;;;;;;2.17;1.58;;;23.40;44.80;;;;;;5052076;28;20049;-10
2022/09/17 08:25:05;;;;;;;1.58;1.25;;;23.30;44.90;;;;;;5051773;28;20064;-10
2022/09/17 08:27:31;;;;;;;2.05;1.10;;;23.20;45.10;;;;;;5051878;28;20051;-10
2022/09/17 08:29:57;;;;;;;1.95;1.17;;;23.20;45.20;;;;;;5051702;28;20413;-10
2022/09/17 08:32:23;;;;;;;1.52;1.00;;;23.20;45.40;;;;;;5051846;28;20082;-10
2022/09/17 08:34:48;;;;;;;1.80;1.17;;;23.20;45.30;;;;;;5051838;28;20386;-10
2022/09/17 08:37:15;;;;;;;2.75;1.30;;;23.10;45.20;;;;;;5051827;28;20049;-10
2022/09/17 08:39:40;;;;;;;2.17;1.05;;;23.10;45.40;;;;;;5051993;28;20093;-10
2022/09/17 08:42:26;;;;;;;2.15;1.35;;;23.10;45.40;;;;;;5051729;28;20081;-10
2022/09/17 08:44:52;;;;;;;1.73;1.13;;;23.10;45.50;;;;;;5051660;28;20055;-10
2022/09/17 08:47:29;;;;;;;1.77;1.10;;;23.10;45.40;;;;;;5051903;28;20542;-10
2022/09/17 08:50:02;;;;;;;1.70;1.15;;;23.10;45.40;;;;;;5051640;28;20052;-10
2022/09/17 08:52:58;;;;;;;2.63;1.40;;;23.10;45.30;;;;;;5051625;28;20447;-10
2022/09/17 08:55:57;;;;;;;1.85;1.08;;;23.10;45.40;;;;;;5051805;28;20045;-10
2022/09/17 08:58:54;;;;;;;2.03;1.17;;;23.10;45.40;;;;;;5051739;28;20497;-10
2022/09/17 09:01:29;;;;;;;1.70;1.30;;;23.10;45.50;;;;;;5051896;28;20064;-10
2022/09/17 09:04:34;;;;;;;2.35;1.25;;;23.00;45.50;;;;;;5051445;28;20513;-10
2022/09/17 09:07:11;;;;;;;2.78;1.10;;;23.00;45.70;;;;;;5051431;28;20053;-10
2022/09/17 09:09:45;;;;;;;1.85;0.90;;;22.90;45.70;;;;;;5051316;28;20382;-10
2022/09/17 09:12:21;;;;;;;1.85;1.17;;;22.90;45.80;;;;;;5051739;28;20049;-10
2022/09/17 09:15:29;;;;;;;1.95;1.38;;;22.90;45.80;;;;;;5051809;28;20041;-10
2022/09/17 09:18:02;;;;;;;2.40;1.13;;;22.90;45.80;;;;;;5054339;28;20045;-10
2022/09/17 09:20:38;;;;;;;1.83;0.90;;;22.90;45.70;;;;;;5051324;28;20084;-10
2022/09/17 09:23:30;;;;;;;2.83;1.25;;;22.90;45.80;;;;;;5051392;28;20406;-10
2022/09/17 09:26:11;;;;;;;3.00;1.42;;;22.90;45.70;;;;;;5051122;28;20057;-10
2022/09/17 09:28:54;;;;;;;2.17;1.20;;;23.00;45.70;;;;;;5051106;28;20053;-10
2022/09/17 09:31:29;;;;;;;2.58;1.23;;;22.90;45.70;;;;;;5050920;28;20078;-10
2022/09/17 09:33:55;;;;;;;1.63;1.00;;;22.90;45.70;;;;;;5051745;28;20083;-10
2022/09/17 09:36:20;;;;;;;2.20;1.15;;;23.00;45.70;;;;;;5050955;28;20532;-10
2022/09/17 09:38:58;;;;;;;2.90;1.13;;;23.00;45.70;;;;;;5051058;28;20077;-10
2022/09/17 09:41:47;;;;;;;1.77;1.00;;;23.00;45.70;;;;;;5051290;28;20088;-10
2022/09/17 09:44:15;;;;;;;2.35;1.00;;;23.00;45.60;;;;;;5051208;28;20474;-10
2022/09/17 09:47:05;;;;;;;2.88;1.25;;;23.00;45.60;;;;;;5051154;28;20137;-10
2022/09/17 09:49:49;;;;;;;1.42;1.00;;;23.00;45.60;;;;;;5051351;28;20052;-10
2022/09/17 09:52:47;;;;;;;2.28;1.25;;;23.00;45.60;;;;;;5050847;28;20072;-10
2022/09/17 09:55:39;;;;;;;2.03;1.02;;;23.00;45.50;;;;;;5050777;28;20056;-10
2022/09/17 09:58:35;;;;;;;1.05;0.90;;;23.00;45.50;;;;;;5050699;28;20071;-10
2022/09/17 10:01:01;;;;;;;1.73;1.00;;;23.10;45.50;;;;;;5051084;28;20422;-10
2022/09/17 10:03:31;;;;;;;1.80;0.90;;;23.10;45.40;;;;;;5051023;28;20053;-10
2022/09/17 10:06:00;;;;;;;2.25;1.25;;;23.10;45.40;;;;;;5050387;28;20074;-10
2022/09/17 10:08:28;;;;;;;2.60;1.30;;;23.10;45.40;;;;;;5050806;28;20049;-10
2022/09/17 10:11:15;;;;;;;2.72;1.20;;;23.10;45.40;;;;;;5050576;28;20131;-10
2022/09/17 10:13:40;;;;;;;1.92;1.02;;;23.10;45.40;;;;;;5053529;28;20110;-10
2022/09/17 10:16:26;;;;;;;2.25;1.25;;;23.10;45.50;;;;;;5050484;28;20455;-10
2022/09/17 10:19:04;;;;;;;1.83;1.38;;;23.10;45.40;;;;;;5050498;28;20059;-10
2022/09/17 10:21:35;;;;;;;4.10;1.20;;;23.10;45.40;;;;;;5051038;28;20117;-10
2022/09/17 10:24:02;;;;;;;;;;;23.10;45.40;;;;;;5051360;28;20132;-10
2022/09/17 10:26:33;;;;;;;1.13;0.93;;;23.10;45.30;;;;;;5050414;28;19917;-10
2022/09/17 10:29:05;;;;;;;1.45;0.90;;;23.10;45.30;;;;;;5050466;28;20049;-10
2022/09/17 10:31:51;;;;;;;1.92;1.02;;;23.20;45.30;;;;;;5050471;28;20053;-10
2022/09/17 10:34:23;;;;;;;1.50;0.90;;;23.20;45.20;;;;;;5050343;28;20056;-10
2022/09/17 10:36:49;;;;;;;2.70;1.10;;;23.20;45.20;;;;;;5049869;28;20049;-11
2022/09/17 10:39:33;;;;;;;2.00;1.20;;;23.20;45.10;;;;;;5051026;28;20557;-10
2022/09/17 10:42:04;;;;;;;1.55;1.00;;;23.20;45.00;;;;;;5050274;28;20053;-10
2022/09/17 10:44:35;;;;;;;1.20;1.00;;;23.30;45.00;;;;;;5050173;28;20044;-10
2022/09/17 10:47:10;;;;;;;1.37;1.00;;;23.20;45.10;;;;;;5050138;28;20061;-10
2022/09/17 10:50:14;;;;;;;1.50;0.93;;;23.20;45.10;;;;;;5050064;28;20447;-11
2022/09/17 10:52:47;;;;;;;2.15;1.17;;;23.20;45.10;;;;;;5056291;28;20052;-10
2022/09/17 10:55:35;;;;;;;2.05;1.20;;;23.20;45.10;;;;;;5049755;28;20061;-10
2022/09/17 10:58:07;;;;;;;2.10;1.00;;;23.20;45.10;;;;;;5049981;28;20052;-10
2022/09/17 11:00:43;;;;;;;2.25;1.23;;;23.20;45.00;;;;;;5050275;28;20055;-10
2022/09/17 11:03:35;;;;;;;1.25;1.15;;;23.30;45.00;;;;;;5049941;28;20125;-10
2022/09/17 11:06:07;;;;;;;2.40;1.10;;;23.30;44.80;;;;;;5050341;28;20072;-10
2022/09/17 11:08:54;;;;;;;2.05;1.00;;;23.30;44.80;;;;;;5049925;28;20117;-10
2022/09/17 11:11:44;;;;;;;2.15;1.25;;;23.30;44.80;;;;;;5049835;28;20053;-10
2022/09/17 11:14:17;;;;;;;1.80;0.93;;;23.30;44.90;;;;;;5048910;28;20132;-10
2022/09/17 11:17:05;;;;;;;2.20;0.90;;;23.30;44.80;;;;;;5049974;28;20056;-10
2022/09/17 11:20:00;;;;;;;2.05;1.35;;;23.30;44.90;;;;;;5049713;28;20041;-10
2022/09/17 11:23:05;;;;;;;1.40;0.80;;;23.30;44.90;;;;;;5057289;28;20064;-10
2022/09/17 11:25:35;;;;;;;2.13;1.00;;;23.30;44.90;;;;;;5049960;28;20049;-10
2022/09/17 11:28:09;;;;;;;1.42;0.90;;;23.30;44.90;;;;;;5049649;28;20056;-10
2022/09/17 11:30:49;;;;;;;1.65;1.40;;;23.20;44.90;;;;;;5049731;28;20491;-10
2022/09/17 11:33:42;;;;;;;2.08;1.30;;;23.20;44.90;;;;;;5049915;28;20057;-10
2022/09/17 11:36:13;;;;;;;2.03;0.95;;;23.20;44.90;;;;;;5049883;28;20180;-10
2022/09/17 11:38:47;;;;;;;1.63;0.98;;;23.30;44.90;;;;;;5049483;28;20506;-10
2022/09/17 11:41:24;;;;;;;2.05;1.15;;;23.30;44.90;;;;;;5049570;28;20099;-10
2022/09/17 11:43:56;;;;;;;1.48;0.90;;;23.20;44.90;;;;;;5049377;28;20105;-10
2022/09/17 11:46:28;;;;;;;1.10;0.70;;;23.20;44.90;;;;;;5049707;28;20048;-10
2022/09/17 11:48:57;;;;;;;;;;;23.20;45.00;;;;;;5052808;28;20081;-10
2022/09/17 11:51:44;;;;;;;1.48;0.90;;;23.30;44.90;;;;;;5052417;28;20012;-10
2022/09/17 11:54:23;;;;;;;2.70;1.17;;;23.30;44.80;;;;;;5052592;28;20049;-10
2022/09/17 11:57:18;;;;;;;1.73;1.00;;;23.30;44.80;;;;;;5052945;28;20060;-10
2022/09/17 12:00:15;;;;;;;1.75;1.23;;;23.30;44.80;;;;;;5050588;28;20118;-10
2022/09/17 12:02:45;;;;;;;1.75;0.90;;;23.30;44.80;;;;;;5052028;28;20056;-10
2022/09/17 12:05:42;;;;;;;1.73;0.88;;;23.30;44.80;;;;;;5051787;28;20045;-10
2022/09/17 12:08:49;;;;;;;2.42;1.17;;;23.20;45.30;;;;;;5052060;28;20518;-10
2022/09/17 12:11:33;;;;;;;1.58;0.77;;;23.20;44.80;;;;;;5052166;28;20475;-10
2022/09/17 12:14:22;;;;;;;1.98;1.10;;;23.20;45.40;;;;;;5052029;28;20064;-10
2022/09/17 12:16:52;;;;;;;3.70;1.42;;;23.20;44.80;;;;;;5051713;28;20144;-10
2022/09/17 12:19:36;;;;;;;1.58;0.95;;;23.20;44.80;;;;;;5052254;28;20077;-10
2022/09/17 12:22:32;;;;;;;1.92;1.00;;;23.20;45.40;;;;;;5052366;28;20367;-10
2022/09/17 12:25:00;;;;;;;2.20;1.10;;;23.20;44.90;;;;;;5051947;28;20057;-10
2022/09/17 12:27:53;;;;;;;1.10;1.00;;;23.20;45.00;;;;;;5051974;28;20501;-11
2022/09/17 12:30:24;;;;;;;1.27;0.82;;;23.10;45.00;;;;;;5051507;28;20056;-10
2022/09/17 12:33:07;;;;;;;1.25;0.82;;;23.10;45.10;;;;;;5051828;28;20069;-10
2022/09/17 12:35:40;;;;;;;1.73;0.95;;;23.10;45.00;;;;;;5052135;28;20049;-10
2022/09/17 12:38:17;;;;;;;0.95;0.80;;;23.10;45.00;;;;;;5052187;28;20053;-10
2022/09/17 12:40:53;;;;;;;1.50;1.00;;;23.10;45.10;;;;;;5051967;28;20052;-10
2022/09/17 12:43:27;;;;;;;1.88;1.20;;;23.10;45.10;;;;;;5051761;28;20061;-10
2022/09/17 12:45:58;;;;;;;1.83;0.90;;;23.20;45.00;;;;;;5052075;28;20053;-10
2022/09/17 12:48:44;;;;;;;1.92;1.20;;;23.20;45.00;;;;;;5052404;28;20057;-10
2022/09/17 12:51:19;;;;;;;2.05;1.08;;;23.20;45.00;;;;;;5051574;28;20065;-10
2022/09/17 12:54:28;;;;;;;1.70;0.73;;;23.20;45.00;;;;;;5052274;28;20053;-10
2022/09/17 12:57:09;;;;;;;1.15;1.00;;;23.20;44.90;;;;;;5051588;28;20060;-10
2022/09/17 13:00:03;;;;;;;1.13;0.82;;;23.10;45.00;;;;;;5051132;28;20452;-10
2022/09/17 13:03:19;;;;;;;1.45;0.93;;;23.20;45.00;;;;;;5052116;28;20056;-10
2022/09/17 13:06:03;;;;;;;1.08;0.90;;;23.10;44.90;;;;;;5072304;28;20580;-10
2022/09/17 13:08:59;;;;;;;1.45;1.00;;;23.10;45.00;;;;;;5073187;28;20052;-10
2022/09/17 13:11:40;;;;;;;0.98;0.82;;;23.20;44.90;;;;;;5052784;28;20398;-10
2022/09/17 13:14:26;;;;;;;2.13;0.98;;;23.20;44.80;;;;;;5051830;28;20486;-11
2022/09/17 13:17:14;;;;;;;1.85;0.90;;;23.20;44.80;;;;;;5051624;28;20102;-10
2022/09/17 13:19:59;;;;;;;2.28;1.00;;;23.20;44.90;;;;;;5051064;28;20501;-10